Time;durP1;ratioP1;P1;durP2;ratioP2;P2;SDS_P1;SDS_P2;PMS_P1;PMS_P2;Temp;Humidity;BMP_temperature;BMP_pressure;BME280_temperature;BME280_humidity;BME280_pressure;Samples;Min_cycle;Max_cycle;Signal;HPM_P1;HPM_P2
2022/06/06 00:01:43;;;;;;;10.20;5.15;;;15.40;86.80;;;;;;5017624;28;20494;-80
2022/06/06 00:04:10;;;;;;;12.30;6.32;;;15.50;87.00;;;;;;5000667;28;20046;-81
2022/06/06 00:06:36;;;;;;;8.80;5.45;;;15.30;86.90;;;;;;5002246;28;20497;-79
2022/06/06 00:09:03;;;;;;;7.35;4.30;;;15.30;87.00;;;;;;5004691;28;20397;-79
2022/06/06 00:11:33;;;;;;;8.05;4.78;;;15.30;87.10;;;;;;4986408;28;20100;-78
2022/06/06 00:13:59;;;;;;;8.40;4.82;;;15.20;87.00;;;;;;5001541;28;20081;-81
2022/06/06 00:16:25;;;;;;;6.57;4.03;;;15.20;87.00;;;;;;4986339;28;20037;-79
2022/06/06 00:18:51;;;;;;;7.97;4.57;;;15.10;87.00;;;;;;5019233;28;20042;-80
2022/06/06 00:21:16;;;;;;;6.93;4.15;;;15.10;87.00;;;;;;5000919;28;20049;-79
2022/06/06 00:23:42;;;;;;;6.57;4.10;;;15.10;87.00;;;;;;4982779;28;20042;-80
2022/06/06 00:26:11;;;;;;;8.38;3.95;;;15.10;87.10;;;;;;4997526;28;20085;-80
2022/06/06 00:28:39;;;;;;;7.85;4.10;;;15.10;87.10;;;;;;5014101;28;20072;-79
2022/06/06 00:36:32;;;;;;;6.30;3.80;;;15.00;86.90;;;;;;5014878;28;20180;-80
2022/06/06 00:38:58;;;;;;;6.07;3.42;;;15.00;86.90;;;;;;4997943;28;20030;-80
2022/06/06 00:41:25;;;;;;;6.28;3.50;;;14.90;86.80;;;;;;4981954;28;20061;-80
2022/06/06 00:44:03;;;;;;;5.82;3.38;;;15.00;86.90;;;;;;4980669;28;20038;-79
2022/06/06 00:46:30;;;;;;;5.45;2.80;;;15.10;87.00;;;;;;5011861;28;20544;-79
2022/06/06 00:48:55;;;;;;;4.45;2.63;;;15.00;86.90;;;;;;4998974;28;20042;-80
2022/06/06 00:51:21;;;;;;;6.20;2.72;;;15.00;86.90;;;;;;4995781;28;20448;-80
2022/06/06 00:53:51;;;;;;;5.68;2.75;;;15.00;86.80;;;;;;5012304;28;20505;-78
2022/06/06 00:56:27;;;;;;;4.63;2.55;;;15.00;86.80;;;;;;4994883;28;20038;-79
2022/06/06 00:58:56;;;;;;;4.75;2.65;;;15.00;86.80;;;;;;4996523;28;20038;-79
2022/06/06 01:01:23;;;;;;;5.25;2.97;;;15.10;86.80;;;;;;4994674;28;20584;-80
2022/06/06 01:03:49;;;;;;;6.18;3.60;;;15.00;86.70;;;;;;4979997;28;20139;-80
2022/06/06 01:06:18;;;;;;;5.00;2.75;;;15.00;87.00;;;;;;4977457;28;20050;-80
2022/06/06 01:08:47;;;;;;;5.20;2.90;;;15.00;86.70;;;;;;4995177;28;20050;-81
2022/06/06 01:11:13;;;;;;;6.13;3.15;;;15.10;86.70;;;;;;5011820;28;20104;-80
2022/06/06 01:13:41;;;;;;;4.88;2.70;;;15.00;86.70;;;;;;4993993;28;20120;-80
2022/06/06 01:16:22;;;;;;;4.95;2.83;;;15.00;86.70;;;;;;4994215;28;20062;-79
2022/06/06 01:19:17;;;;;;;4.63;2.83;;;15.00;86.70;;;;;;4994701;28;20421;-81
2022/06/06 01:22:03;;;;;;;5.40;2.75;;;15.00;87.30;;;;;;4997111;28;20505;-79
2022/06/06 01:24:53;;;;;;;4.95;2.67;;;15.10;86.70;;;;;;5012103;28;20053;-79
2022/06/06 01:27:37;;;;;;;5.25;2.90;;;15.00;86.70;;;;;;4977671;28;20129;-80
2022/06/06 01:30:09;;;;;;;5.60;2.97;;;15.00;86.70;;;;;;5011928;28;20490;-78
2022/06/06 01:32:42;;;;;;;6.30;2.85;;;15.00;86.70;;;;;;5011481;28;20422;-79
2022/06/06 01:35:09;;;;;;;4.20;2.30;;;15.00;86.70;;;;;;4994165;28;20378;-79
2022/06/06 01:37:39;;;;;;;4.63;2.60;;;15.00;86.80;;;;;;4993693;28;20034;-79
2022/06/06 01:40:11;;;;;;;5.43;2.72;;;14.90;86.70;;;;;;4993492;28;20132;-80
2022/06/06 01:43:02;;;;;;;5.65;2.92;;;14.90;86.80;;;;;;4979118;28;20060;-80
2022/06/06 01:45:44;;;;;;;4.50;2.40;;;15.00;86.90;;;;;;4994252;28;20144;-80
2022/06/06 01:48:16;;;;;;;5.10;3.00;;;15.00;86.90;;;;;;4994324;28;20045;-79
2022/06/06 01:50:43;;;;;;;5.15;2.70;;;14.90;86.80;;;;;;5012204;28;20046;-80
2022/06/06 01:53:13;;;;;;;4.32;2.50;;;14.90;86.90;;;;;;5012524;28;20050;-79
2022/06/06 01:55:42;;;;;;;4.00;2.25;;;14.90;86.90;;;;;;5011454;28;20042;-79
2022/06/06 01:58:12;;;;;;;4.18;2.47;;;14.80;86.90;;;;;;4976665;28;20494;-79
2022/06/06 02:00:39;;;;;;;4.32;2.38;;;14.90;87.00;;;;;;5015070;28;20045;-79
2022/06/06 02:03:06;;;;;;;4.30;2.25;;;14.90;87.00;;;;;;4997544;28;20083;-80
2022/06/06 02:05:35;;;;;;;3.67;2.30;;;15.00;87.00;;;;;;4980894;28;20524;-79
2022/06/06 02:08:01;;;;;;;3.78;2.08;;;14.90;86.90;;;;;;5014415;28;20125;-78
2022/06/06 02:10:27;;;;;;;4.28;2.28;;;14.90;87.50;;;;;;4996779;28;20521;-79
2022/06/06 02:12:53;;;;;;;5.45;2.58;;;15.00;86.90;;;;;;4980523;28;20038;-80
2022/06/06 02:15:22;;;;;;;4.80;2.47;;;15.00;86.90;;;;;;5012617;28;20402;-79
2022/06/06 02:17:49;;;;;;;4.22;2.33;;;15.00;86.90;;;;;;4996779;28;20129;-79
2022/06/06 02:20:17;;;;;;;3.47;2.00;;;15.10;87.00;;;;;;4996952;28;20050;-79
2022/06/06 02:22:43;;;;;;;4.25;2.20;;;15.00;86.90;;;;;;5014293;28;20069;-79
2022/06/06 02:25:10;;;;;;;5.45;2.90;;;15.00;86.90;;;;;;4979469;28;20588;-79
2022/06/06 02:27:37;;;;;;;4.95;2.60;;;15.00;86.90;;;;;;4996432;28;20542;-79
2022/06/06 02:30:06;;;;;;;5.40;3.00;;;15.00;86.90;;;;;;5014381;28;20042;-79
2022/06/06 02:32:32;;;;;;;4.82;2.40;;;15.00;86.90;;;;;;4994522;28;20431;-79
2022/06/06 02:34:58;;;;;;;5.22;2.90;;;15.00;86.90;;;;;;4994702;28;20101;-79
2022/06/06 02:37:24;;;;;;;5.03;2.80;;;15.00;86.90;;;;;;4980169;28;20065;-79
2022/06/06 02:39:49;;;;;;;5.20;2.83;;;15.00;87.50;;;;;;5014325;28;20498;-79
2022/06/06 02:42:15;;;;;;;5.05;2.92;;;15.10;86.90;;;;;;5013711;28;20438;-79
2022/06/06 02:44:41;;;;;;;4.90;2.72;;;15.10;86.90;;;;;;4996070;28;20049;-79
2022/06/06 02:47:07;;;;;;;4.70;2.75;;;15.00;86.90;;;;;;4994855;28;20041;-79
2022/06/06 02:49:33;;;;;;;6.13;2.88;;;15.10;86.90;;;;;;4996367;28;20034;-79
2022/06/06 02:52:01;;;;;;;4.72;2.67;;;15.00;86.90;;;;;;5014105;28;20038;-79
2022/06/06 02:54:27;;;;;;;5.25;2.72;;;15.20;87.00;;;;;;4996067;28;20093;-79
2022/06/06 02:56:54;;;;;;;4.25;2.33;;;15.10;86.90;;;;;;4994847;28;20034;-79
2022/06/06 02:59:22;;;;;;;3.33;2.17;;;15.10;86.90;;;;;;5014076;28;20569;-79
2022/06/06 03:01:48;;;;;;;4.28;2.15;;;15.10;86.90;;;;;;5014359;28;20117;-79
2022/06/06 03:04:14;;;;;;;4.45;2.58;;;15.10;86.90;;;;;;4996160;28;20037;-79
2022/06/06 03:07:09;;;;;;;4.53;2.30;;;15.10;86.90;;;;;;4996827;28;20532;-79
2022/06/06 03:10:06;;;;;;;4.70;2.45;;;15.10;87.00;;;;;;4995641;28;20128;-79
2022/06/06 03:13:06;;;;;;;4.60;2.40;;;15.10;86.90;;;;;;5013253;28;20061;-79
2022/06/06 03:22:17;;;;;;;3.75;2.05;;;15.10;86.90;;;;;;5013618;28;20042;-79
2022/06/06 03:25:01;;;;;;;4.45;2.33;;;15.20;87.50;;;;;;4998150;28;20046;-79
2022/06/06 03:27:44;;;;;;;5.10;2.50;;;15.20;86.80;;;;;;4995480;28;20041;-79
2022/06/06 03:30:36;;;;;;;5.60;2.75;;;15.10;86.80;;;;;;5013878;28;20088;-79
2022/06/06 03:33:16;;;;;;;4.72;2.35;;;15.20;86.90;;;;;;4994966;28;20050;-79
2022/06/06 03:35:52;;;;;;;5.22;2.55;;;15.10;86.80;;;;;;4995775;28;20042;-79
2022/06/06 03:38:33;;;;;;;4.40;2.50;;;15.20;86.90;;;;;;5013323;28;20057;-79
2022/06/06 03:41:17;;;;;;;;;;;15.20;86.80;;;;;;4979772;28;20037;-79
2022/06/06 03:44:11;;;;;;;5.05;2.35;;;15.20;86.70;;;;;;4994209;28;20003;-79
2022/06/06 03:47:02;;;;;;;3.75;2.10;;;15.10;86.60;;;;;;4998060;28;20041;-80
2022/06/06 03:49:48;;;;;;;3.42;1.90;;;15.20;86.70;;;;;;4995788;28;20120;-80
2022/06/06 03:52:36;;;;;;;4.13;1.83;;;15.20;86.70;;;;;;4995487;28;20375;-79
2022/06/06 03:55:37;;;;;;;4.47;2.17;;;15.10;86.70;;;;;;4995265;28;20192;-79
2022/06/06 03:58:04;;;;;;;4.75;2.53;;;15.20;86.80;;;;;;5013134;28;20046;-79
2022/06/06 04:00:32;;;;;;;5.57;2.70;;;15.20;86.70;;;;;;4995774;28;20452;-79
2022/06/06 04:03:00;;;;;;;3.97;2.38;;;15.20;86.70;;;;;;5013403;28;20045;-79
2022/06/06 04:05:28;;;;;;;4.40;2.28;;;15.20;86.70;;;;;;5013212;28;20050;-79
2022/06/06 04:07:54;;;;;;;4.70;2.47;;;15.20;86.70;;;;;;4963267;28;20037;-79
2022/06/06 04:10:24;;;;;;;3.97;2.40;;;15.20;86.70;;;;;;4994453;28;20137;-80
2022/06/06 04:13:16;;;;;;;4.82;2.47;;;15.20;86.70;;;;;;4995366;28;20081;-79
2022/06/06 04:15:57;;;;;;;5.05;2.75;;;15.10;86.80;;;;;;4971901;28;20039;-79
2022/06/06 04:18:43;;;;;;;5.15;2.78;;;15.20;86.80;;;;;;4955604;28;20661;-79
2022/06/06 04:21:35;;;;;;;6.28;3.40;;;15.20;86.80;;;;;;4971218;28;20054;-77
2022/06/06 04:24:33;;;;;;;6.05;3.35;;;15.20;86.90;;;;;;4958697;28;20051;-78
2022/06/06 04:27:14;;;;;;;6.05;3.33;;;15.20;86.90;;;;;;4955650;28;20483;-78
2022/06/06 04:29:55;;;;;;;6.78;3.85;;;15.30;86.90;;;;;;4971993;28;20090;-79
2022/06/06 04:32:43;;;;;;;5.95;3.63;;;15.30;86.90;;;;;;4957370;28;20050;-77
2022/06/06 04:35:35;;;;;;;7.68;4.45;;;15.20;86.80;;;;;;4971622;28;20043;-78
2022/06/06 04:38:17;;;;;;;8.23;4.72;;;15.20;86.80;;;;;;4941858;28;20447;-79
2022/06/06 04:41:11;;;;;;;8.82;5.15;;;15.20;86.80;;;;;;4954603;28;20126;-77
2022/06/06 04:43:50;;;;;;;8.80;5.22;;;15.10;86.80;;;;;;4955350;28;20399;-80
2022/06/06 04:46:29;;;;;;;7.78;4.82;;;15.10;86.70;;;;;;4984520;28;20054;-79
2022/06/06 04:48:57;;;;;;;6.88;4.32;;;15.10;86.70;;;;;;5012559;28;20057;-79
2022/06/06 04:51:24;;;;;;;8.15;4.82;;;15.10;86.70;;;;;;4978603;28;20069;-78
2022/06/06 04:53:55;;;;;;;8.07;4.88;;;15.10;86.70;;;;;;4994771;28;20042;-79
2022/06/06 04:56:21;;;;;;;6.72;4.20;;;15.10;86.70;;;;;;4979003;28;20034;-77
2022/06/06 04:58:52;;;;;;;8.23;5.05;;;15.10;86.70;;;;;;5012976;28;20073;-81
2022/06/06 05:01:18;;;;;;;6.90;4.07;;;15.10;86.70;;;;;;4994608;28;20048;-79
2022/06/06 05:03:44;;;;;;;7.63;4.70;;;15.00;86.60;;;;;;4994663;28;20050;-83
2022/06/06 05:06:42;;;;;;;7.38;4.50;;;15.10;86.60;;;;;;4978483;28;20049;-79
2022/06/06 05:09:22;;;;;;;7.30;4.38;;;15.10;86.70;;;;;;4998314;28;20050;-82
2022/06/06 05:12:20;;;;;;;8.77;4.93;;;15.10;86.60;;;;;;4978035;28;20407;-81
2022/06/06 05:15:07;;;;;;;7.65;4.72;;;15.00;86.60;;;;;;4977794;28;20045;-79
2022/06/06 05:17:55;;;;;;;5.38;3.45;;;15.00;86.60;;;;;;4994358;28;20045;-80
2022/06/06 05:20:41;;;;;;;7.07;4.05;;;15.10;86.70;;;;;;4974729;28;20049;-81
2022/06/06 05:23:38;;;;;;;6.75;4.15;;;15.00;86.50;;;;;;4955266;28;20616;-81
2022/06/06 05:26:28;;;;;;;7.35;4.75;;;15.10;86.60;;;;;;4955254;28;20046;-78
2022/06/06 05:29:08;;;;;;;7.47;4.50;;;15.10;86.40;;;;;;4955736;28;20070;-78
2022/06/06 05:32:05;;;;;;;7.55;4.32;;;15.10;86.30;;;;;;4971137;28;20495;-81
2022/06/06 05:34:43;;;;;;;6.50;4.10;;;15.10;86.00;;;;;;4961185;28;20407;-79
2022/06/06 05:37:31;;;;;;;6.82;4.38;;;15.20;85.80;;;;;;4961539;28;20089;-81
2022/06/06 05:40:24;;;;;;;6.60;4.13;;;15.20;85.60;;;;;;4938608;29;20036;-80
2022/06/06 05:43:05;;;;;;;5.72;3.60;;;15.10;85.80;;;;;;4910141;29;20488;-81
2022/06/06 05:45:41;;;;;;;5.78;3.70;;;15.10;85.90;;;;;;4923325;29;20043;-80
2022/06/06 05:48:46;;;;;;;5.85;3.65;;;15.20;85.80;;;;;;4937541;29;20513;-79
2022/06/06 05:51:27;;;;;;;5.75;3.55;;;15.30;85.60;;;;;;4937383;29;20051;-80
2022/06/06 05:54:25;;;;;;;6.53;3.42;;;15.30;85.30;;;;;;4953378;28;20030;-80
2022/06/06 05:57:25;;;;;;;4.85;3.13;;;15.40;85.10;;;;;;4962611;28;20054;-81
2022/06/06 06:00:16;;;;;;;4.63;2.92;;;15.30;85.00;;;;;;4963316;28;20047;-81
2022/06/06 06:03:16;;;;;;;3.67;2.40;;;15.20;85.00;;;;;;4965515;28;20038;-80
2022/06/06 06:06:07;;;;;;;3.38;2.30;;;15.20;85.10;;;;;;4966165;28;20027;-80
2022/06/06 06:08:55;;;;;;;4.50;2.80;;;15.30;85.60;;;;;;4979711;28;20122;-81
2022/06/06 06:11:48;;;;;;;3.70;2.35;;;15.20;84.90;;;;;;4996356;28;20102;-81
2022/06/06 06:14:32;;;;;;;3.55;2.10;;;15.30;84.90;;;;;;5020196;28;20034;-80
2022/06/06 06:17:01;;;;;;;3.55;2.10;;;15.20;84.80;;;;;;5026476;28;20034;-80
2022/06/06 06:19:36;;;;;;;3.17;2.08;;;15.20;84.80;;;;;;5030407;28;20030;-81
2022/06/06 06:22:03;;;;;;;4.35;2.85;;;15.20;85.00;;;;;;4987405;28;20397;-82
2022/06/06 06:24:33;;;;;;;4.53;2.60;;;15.30;85.00;;;;;;5005414;28;20038;-80
2022/06/06 06:27:02;;;;;;;3.90;2.40;;;15.30;84.60;;;;;;5008565;28;20053;-81
2022/06/06 06:29:28;;;;;;;3.17;2.22;;;15.30;84.60;;;;;;5010302;28;20091;-82
2022/06/06 06:32:18;;;;;;;3.33;2.03;;;15.30;84.50;;;;;;5010656;28;20106;-81
2022/06/06 06:35:23;;;;;;;2.97;1.85;;;15.40;84.40;;;;;;5028005;28;20081;-81
2022/06/06 06:38:04;;;;;;;4.80;2.20;;;15.50;84.30;;;;;;5022893;28;20045;-80
2022/06/06 06:40:45;;;;;;;4.97;2.40;;;15.50;84.10;;;;;;5012165;28;20045;-80
2022/06/06 06:43:24;;;;;;;3.53;2.10;;;15.50;84.00;;;;;;5022381;28;20049;-78
2022/06/06 06:45:56;;;;;;;4.22;2.28;;;15.50;84.00;;;;;;4990795;28;20512;-81
2022/06/06 06:48:33;;;;;;;4.07;2.70;;;15.50;83.90;;;;;;4983753;28;20072;-80
2022/06/06 06:51:09;;;;;;;4.25;2.65;;;15.60;83.80;;;;;;4982375;28;20046;-79
2022/06/06 06:53:56;;;;;;;3.47;2.17;;;15.50;83.50;;;;;;5010615;28;20115;-79
2022/06/06 06:56:50;;;;;;;2.53;1.77;;;15.50;83.60;;;;;;5003756;28;20045;-81
2022/06/06 06:59:32;;;;;;;3.67;1.83;;;15.50;83.50;;;;;;5002356;28;20394;-83
2022/06/06 07:08:41;;;;;;;3.00;2.08;;;15.60;83.00;;;;;;4961414;28;20055;-81
2022/06/06 07:11:21;;;;;;;4.13;2.50;;;15.60;82.90;;;;;;4959407;28;20042;-78
2022/06/06 07:14:09;;;;;;;4.82;2.30;;;15.60;83.10;;;;;;4974158;28;20129;-80
2022/06/06 07:16:37;;;;;;;3.00;2.10;;;15.60;82.90;;;;;;4957600;28;20035;-79
2022/06/06 07:19:10;;;;;;;3.35;2.15;;;15.50;82.90;;;;;;4972129;28;20249;-80
2022/06/06 07:21:38;;;;;;;3.40;2.40;;;15.70;82.90;;;;;;4945732;28;20070;-80
2022/06/06 07:24:08;;;;;;;3.92;2.50;;;15.70;82.70;;;;;;4963247;28;20043;-80
2022/06/06 07:26:41;;;;;;;3.92;2.30;;;15.90;82.50;;;;;;4996980;28;20043;-80
2022/06/06 07:29:08;;;;;;;2.95;2.03;;;16.00;82.20;;;;;;5023028;28;20040;-81
2022/06/06 07:31:58;;;;;;;2.75;1.90;;;16.10;81.90;;;;;;5019845;28;20136;-82
2022/06/06 07:34:55;;;;;;;4.28;2.30;;;16.20;81.60;;;;;;5002690;28;20083;-78
2022/06/06 07:37:40;;;;;;;2.58;1.90;;;16.30;81.40;;;;;;5016383;28;20038;-80
2022/06/06 07:40:27;;;;;;;2.42;1.67;;;16.50;81.40;;;;;;5022018;28;20041;-80
2022/06/06 07:43:10;;;;;;;3.20;1.50;;;16.70;81.00;;;;;;5008438;28;20117;-82
2022/06/06 07:45:46;;;;;;;2.72;1.60;;;17.00;80.50;;;;;;5019116;28;20101;-81
2022/06/06 07:48:39;;;;;;;1.67;1.58;;;17.10;80.20;;;;;;5018694;28;20032;-79
2022/06/06 07:51:14;;;;;;;1.83;1.50;;;17.40;79.60;;;;;;5018769;28;20046;-82
2022/06/06 07:53:59;;;;;;;3.00;1.35;;;17.40;79.40;;;;;;4984086;28;20064;-78
2022/06/06 07:56:43;;;;;;;2.22;1.58;;;17.50;79.10;;;;;;5015314;28;20018;-78
2022/06/06 07:59:23;;;;;;;1.30;1.20;;;17.60;79.00;;;;;;4996651;28;20419;-77
2022/06/06 08:02:15;;;;;;;1.95;1.20;;;17.70;78.80;;;;;;5004308;28;20065;-76
2022/06/06 08:04:58;;;;;;;2.53;1.10;;;17.70;78.30;;;;;;4998215;28;20081;-80
2022/06/06 08:07:45;;;;;;;1.42;1.10;;;17.70;78.40;;;;;;4999865;28;20038;-79
2022/06/06 08:10:42;;;;;;;1.17;0.77;;;17.90;78.00;;;;;;5022001;28;20022;-84
2022/06/06 08:13:30;;;;;;;1.58;0.90;;;17.90;77.80;;;;;;4974621;28;20038;-84
2022/06/06 08:16:23;;;;;;;0.73;0.73;;;17.90;77.70;;;;;;5002186;28;20037;-82
2022/06/06 08:19:25;;;;;;;1.00;0.75;;;18.10;77.60;;;;;;4969609;28;20030;-79
2022/06/06 08:21:54;;;;;;;0.80;0.80;;;18.30;77.10;;;;;;5007828;28;20041;-84
2022/06/06 08:24:27;;;;;;;0.95;0.88;;;18.40;77.00;;;;;;4980993;28;20040;-82
2022/06/06 08:26:55;;;;;;;1.52;0.90;;;18.50;76.60;;;;;;4982879;28;20033;-83
2022/06/06 08:29:22;;;;;;;0.88;0.75;;;18.50;76.80;;;;;;4987089;28;20082;-83
2022/06/06 08:31:48;;;;;;;0.77;0.65;;;18.60;76.90;;;;;;4991699;28;20038;-83
2022/06/06 08:34:14;;;;;;;0.77;0.77;;;18.60;76.40;;;;;;5004979;28;20114;-84
2022/06/06 08:37:10;;;;;;;1.20;1.02;;;18.70;76.60;;;;;;5022920;28;20133;-82
2022/06/06 08:40:00;;;;;;;1.35;1.08;;;18.50;77.50;;;;;;5015427;28;20046;-82
2022/06/06 08:42:44;;;;;;;1.30;1.20;;;18.50;77.00;;;;;;4995506;28;20042;-84
2022/06/06 08:45:50;;;;;;;1.02;0.98;;;18.60;76.70;;;;;;4996055;28;20061;-83
2022/06/06 08:48:47;;;;;;;1.20;1.00;;;18.60;76.40;;;;;;4984975;28;20030;-78
2022/06/06 08:51:47;;;;;;;0.88;0.88;;;18.40;76.70;;;;;;5013467;28;20050;-82
2022/06/06 08:54:46;;;;;;;0.83;0.83;;;18.50;77.10;;;;;;4998489;28;20034;-79
2022/06/06 08:57:37;;;;;;;0.90;0.90;;;18.50;76.50;;;;;;5012537;28;20273;-77
2022/06/06 09:00:18;;;;;;;0.70;0.70;;;18.30;76.70;;;;;;4980056;28;20433;-78
2022/06/06 09:03:18;;;;;;;0.70;0.70;;;18.40;77.10;;;;;;5012808;28;20038;-81
2022/06/06 09:06:18;;;;;;;0.80;0.80;;;18.60;76.60;;;;;;5010811;28;20034;-81
2022/06/06 09:09:11;;;;;;;0.68;0.68;;;18.80;76.10;;;;;;4994726;28;20034;-81
2022/06/06 09:12:03;;;;;;;0.75;0.70;;;19.00;75.60;;;;;;5012505;28;20096;-79
2022/06/06 09:15:00;;;;;;;1.30;0.80;;;19.20;75.00;;;;;;4992948;28;20045;-79
2022/06/06 09:17:59;;;;;;;1.08;0.80;;;19.30;74.60;;;;;;4982568;28;20030;-80
2022/06/06 09:20:49;;;;;;;0.85;0.75;;;19.40;74.50;;;;;;4994423;28;20140;-77
2022/06/06 09:23:39;;;;;;;0.90;0.85;;;19.40;74.30;;;;;;4995877;28;20052;-78
2022/06/06 09:26:29;;;;;;;1.58;1.00;;;19.40;74.30;;;;;;5012012;28;20034;-78
2022/06/06 09:29:22;;;;;;;0.60;0.60;;;19.50;74.10;;;;;;4992613;28;20052;-79
2022/06/06 09:32:15;;;;;;;1.55;0.90;;;19.60;73.90;;;;;;4978615;28;20121;-78
2022/06/06 09:35:14;;;;;;;0.75;0.75;;;19.30;73.50;;;;;;5014062;28;20022;-81
2022/06/06 09:38:02;;;;;;;0.75;0.75;;;18.90;74.30;;;;;;4994938;28;20065;-80
2022/06/06 09:40:52;;;;;;;1.20;1.10;;;18.60;74.90;;;;;;5011982;28;20037;-77
2022/06/06 09:43:46;;;;;;;0.80;0.80;;;18.50;75.30;;;;;;4997225;28;20065;-79
2022/06/06 09:46:43;;;;;;;0.60;0.60;;;18.30;75.60;;;;;;4994016;28;20046;-78
2022/06/06 09:49:53;;;;;;;1.17;0.80;;;18.10;76.10;;;;;;4992772;28;20026;-86
2022/06/06 10:00:14;;;;;;;0.60;0.60;;;18.30;75.50;;;;;;5014232;28;20573;-87
2022/06/06 10:07:01;;;;;;;0.52;0.50;;;18.60;75.00;;;;;;5010253;28;20133;-84
2022/06/06 10:09:49;;;;;;;0.70;0.70;;;19.20;74.00;;;;;;4990101;28;20082;-81
2022/06/06 10:12:39;;;;;;;1.17;0.65;;;19.50;72.90;;;;;;5012778;28;20081;-82
2022/06/06 10:15:31;;;;;;;2.00;0.77;;;19.60;72.50;;;;;;4993360;28;20034;-82
2022/06/06 10:18:37;;;;;;;1.08;0.90;;;19.60;72.40;;;;;;4956338;28;20055;-84
2022/06/06 10:25:39;;;;;;;1.52;1.00;;;19.50;72.30;;;;;;4877692;29;20055;-85
2022/06/06 10:28:31;;;;;;;1.00;1.00;;;19.30;72.40;;;;;;4871452;29;20541;-88
2022/06/06 10:31:26;;;;;;;1.23;0.82;;;19.20;72.60;;;;;;4849874;29;20047;-87
2022/06/06 10:34:24;;;;;;;1.15;0.80;;;19.30;72.20;;;;;;4880604;29;20072;-85
2022/06/06 10:40:49;;;;;;;1.25;1.00;;;19.00;72.30;;;;;;4843849;29;20065;-88
2022/06/06 10:43:56;;;;;;;0.85;0.85;;;18.90;72.70;;;;;;4827582;29;20136;-88
2022/06/06 10:46:57;;;;;;;1.30;0.90;;;19.20;72.80;;;;;;4838317;29;20614;-87
2022/06/06 10:50:10;;;;;;;1.02;0.98;;;19.70;72.00;;;;;;4855358;29;20078;-88
2022/06/06 10:53:11;;;;;;;0.95;0.90;;;20.00;70.90;;;;;;4863053;29;20064;-85
2022/06/06 10:56:27;;;;;;;1.35;1.00;;;20.20;70.10;;;;;;4826108;29;20056;-89
2022/06/06 10:59:31;;;;;;;1.98;1.25;;;20.10;69.80;;;;;;4843377;29;20086;-81
2022/06/06 11:02:47;;;;;;;1.52;1.27;;;19.70;70.40;;;;;;4844984;29;20533;-84
2022/06/06 11:05:39;;;;;;;1.45;1.20;;;19.30;71.30;;;;;;4862451;29;20057;-81
2022/06/06 11:08:42;;;;;;;1.73;1.20;;;18.90;72.30;;;;;;4909375;29;20053;-89
2022/06/06 11:12:16;;;;;;;0.90;0.90;;;18.60;73.30;;;;;;4884612;29;20063;-82
2022/06/06 11:14:35;;;;;;;2.75;1.20;;;18.40;73.90;;;;;;4857815;29;20050;-82
2022/06/06 11:17:40;;;;;;;1.52;1.30;;;18.30;74.10;;;;;;4851385;29;20029;-85
2022/06/06 11:20:32;;;;;;;1.38;1.10;;;18.20;74.40;;;;;;4879436;29;20041;-80
2022/06/06 11:23:21;;;;;;;1.10;1.00;;;18.10;74.60;;;;;;4865407;29;20092;-82
2022/06/06 11:29:46;;;;;;;1.55;0.90;;;18.40;74.30;;;;;;4891767;29;20044;-84
2022/06/06 11:32:51;;;;;;;1.05;0.90;;;18.80;73.40;;;;;;4849776;29;20406;-84
2022/06/06 11:35:40;;;;;;;1.20;0.95;;;19.10;72.90;;;;;;4880362;29;20045;-78
2022/06/06 11:38:46;;;;;;;1.00;0.95;;;19.30;72.10;;;;;;4874741;29;20048;-85
2022/06/06 11:52:08;;;;;;;1.00;0.90;;;19.40;71.50;;;;;;4823605;29;20061;-93
2022/06/06 12:02:38;;;;;;;0.88;0.75;;;19.70;70.90;;;;;;4709569;30;20052;-88
2022/06/06 12:23:21;;;;;;;0.70;0.70;;;19.10;71.90;;;;;;4778231;29;20142;-92
2022/06/06 12:30:00;;;;;;;0.60;0.60;;;19.00;71.60;;;;;;4792171;29;20058;-87
2022/06/06 12:33:03;;;;;;;1.00;0.65;;;18.80;71.80;;;;;;4804081;29;20108;-88
2022/06/06 12:35:58;;;;;;;0.75;0.70;;;18.60;72.00;;;;;;4795854;29;20055;-84
2022/06/06 12:38:55;;;;;;;0.80;0.80;;;18.40;72.30;;;;;;4795922;29;20059;-88
2022/06/06 13:06:17;;;;;;;0.63;0.63;;;17.50;74.30;;;;;;4751930;29;20097;-84
2022/06/06 13:09:34;;;;;;;0.60;0.60;;;17.60;74.00;;;;;;4823856;29;20514;-78
2022/06/06 13:12:39;;;;;;;0.60;0.60;;;17.70;73.80;;;;;;4838668;29;20111;-83
2022/06/06 13:15:55;;;;;;;0.57;0.50;;;17.70;73.60;;;;;;4836572;29;20050;-81
2022/06/06 13:19:05;;;;;;;0.75;0.60;;;17.80;73.40;;;;;;4878547;29;20134;-83
2022/06/06 13:39:29;;;;;;;0.40;0.40;;;18.10;72.40;;;;;;4709801;30;20051;-83
2022/06/06 13:46:17;;;;;;;0.55;0.55;;;18.10;72.20;;;;;;4680712;30;20057;-83
2022/06/06 13:49:26;;;;;;;0.80;0.43;;;18.00;72.20;;;;;;4693353;30;20133;-83
2022/06/06 13:52:26;;;;;;;0.50;0.50;;;18.00;72.30;;;;;;4723063;30;20053;-85
2022/06/06 13:55:51;;;;;;;0.70;0.50;;;17.90;72.40;;;;;;4761521;29;20049;-85
2022/06/06 14:02:20;;;;;;;0.47;0.47;;;18.00;72.30;;;;;;4815304;29;20061;-83
2022/06/06 14:05:20;;;;;;;0.47;0.47;;;17.90;72.20;;;;;;4823800;29;20087;-85
2022/06/06 14:08:55;;;;;;;0.50;0.50;;;17.90;72.60;;;;;;4823769;29;20051;-88
2022/06/06 14:18:58;;;;;;;2.72;0.70;;;17.70;72.80;;;;;;4974415;28;20037;-85
2022/06/06 14:21:30;;;;;;;0.98;0.73;;;17.30;73.50;;;;;;4961241;28;20061;-84
2022/06/06 14:24:15;;;;;;;1.08;0.80;;;16.90;74.30;;;;;;4943967;28;20055;-79
2022/06/06 14:26:45;;;;;;;0.75;0.70;;;16.70;75.40;;;;;;4958633;28;20121;-80
2022/06/06 14:29:22;;;;;;;1.02;0.70;;;16.60;75.90;;;;;;4945160;28;20038;-82
2022/06/06 14:31:55;;;;;;;2.03;0.75;;;16.50;76.30;;;;;;4954917;28;20079;-82
2022/06/06 14:34:31;;;;;;;0.60;0.60;;;16.40;76.50;;;;;;4938689;28;20569;-79
2022/06/06 14:37:06;;;;;;;0.55;0.50;;;16.40;76.70;;;;;;4954507;28;20534;-78
2022/06/06 14:39:43;;;;;;;0.90;0.90;;;16.30;76.80;;;;;;4939425;28;20153;-83
2022/06/06 14:42:18;;;;;;;0.95;0.55;;;16.40;76.80;;;;;;4924209;28;20039;-83
2022/06/06 14:44:47;;;;;;;0.80;0.70;;;16.40;77.00;;;;;;4959262;28;20055;-80
2022/06/06 14:47:22;;;;;;;1.00;0.60;;;16.30;76.80;;;;;;4954201;28;20039;-80
2022/06/06 14:52:33;;;;;;;0.57;0.50;;;16.30;77.00;;;;;;4953923;28;20495;-79
2022/06/06 15:06:25;;;;;;;0.73;0.60;;;16.20;77.10;;;;;;4942577;29;20087;-83
2022/06/06 15:09:15;;;;;;;2.08;0.70;;;16.10;77.00;;;;;;4942300;29;20159;-83
2022/06/06 15:11:45;;;;;;;0.80;0.63;;;16.10;77.10;;;;;;4896184;29;20146;-81
2022/06/06 15:14:22;;;;;;;0.80;0.80;;;16.00;77.00;;;;;;4896936;29;20052;-83
2022/06/06 15:17:04;;;;;;;1.40;0.95;;;16.00;77.20;;;;;;4880502;29;20376;-86
2022/06/06 15:19:47;;;;;;;0.80;0.80;;;16.00;77.40;;;;;;4901656;29;20061;-84
2022/06/06 15:22:41;;;;;;;0.77;0.73;;;15.90;77.50;;;;;;4880471;29;20048;-85
2022/06/06 15:25:57;;;;;;;0.90;0.70;;;15.80;77.60;;;;;;4849352;29;20064;-84
2022/06/06 15:28:52;;;;;;;1.33;1.08;;;15.80;77.80;;;;;;4883734;29;20053;-84
2022/06/06 15:32:08;;;;;;;1.00;0.90;;;15.80;77.70;;;;;;4845374;29;20065;-80
2022/06/06 15:34:53;;;;;;;1.50;1.05;;;15.80;77.90;;;;;;4841519;29;20038;-78
2022/06/06 15:37:43;;;;;;;1.83;1.10;;;15.70;77.90;;;;;;4846434;29;20042;-84
2022/06/06 15:40:38;;;;;;;0.93;0.85;;;15.60;78.10;;;;;;4847830;29;20072;-85
2022/06/06 15:43:43;;;;;;;1.58;1.10;;;15.50;78.50;;;;;;4869956;29;20105;-84
2022/06/06 15:46:34;;;;;;;1.13;0.80;;;15.40;78.80;;;;;;4891911;29;20041;-79
2022/06/06 15:49:11;;;;;;;0.63;0.63;;;15.30;79.00;;;;;;4897226;29;20141;-75
2022/06/06 15:51:49;;;;;;;0.50;0.50;;;15.20;79.10;;;;;;4881297;29;20056;-76
2022/06/06 15:54:38;;;;;;;0.40;0.40;;;15.00;79.50;;;;;;4880997;29;20131;-79
2022/06/06 15:57:24;;;;;;;0.55;0.47;;;14.80;79.90;;;;;;4879913;29;20052;-77
2022/06/06 16:00:29;;;;;;;0.40;0.40;;;14.70;80.40;;;;;;4890500;29;20047;-78
2022/06/06 16:03:19;;;;;;;0.30;0.30;;;14.60;80.70;;;;;;4950172;28;20058;-75
2022/06/06 16:05:49;;;;;;;0.65;0.40;;;14.50;80.90;;;;;;4939124;28;20471;-77
2022/06/06 16:08:42;;;;;;;0.75;0.30;;;14.40;80.90;;;;;;4953810;28;20463;-77
2022/06/06 16:11:23;;;;;;;0.20;0.20;;;14.50;81.10;;;;;;4939535;28;20055;-76
2022/06/06 16:14:07;;;;;;;0.30;0.30;;;14.40;81.00;;;;;;4952661;28;20035;-79
2022/06/06 16:16:39;;;;;;;0.30;0.30;;;14.40;81.10;;;;;;4937800;28;20047;-77
2022/06/06 16:19:21;;;;;;;0.38;0.20;;;14.30;81.20;;;;;;4951736;28;20391;-77
2022/06/06 16:21:55;;;;;;;0.15;0.15;;;14.20;81.20;;;;;;5011996;28;20092;-77
2022/06/06 16:24:29;;;;;;;0.20;0.20;;;14.20;81.30;;;;;;4975425;28;20062;-77
2022/06/06 16:27:06;;;;;;;0.38;0.20;;;14.20;81.40;;;;;;5013256;28;20034;-77
2022/06/06 16:29:38;;;;;;;0.20;0.20;;;14.20;81.50;;;;;;4994732;28;20512;-76
2022/06/06 16:32:26;;;;;;;0.13;0.13;;;14.20;81.60;;;;;;5012517;28;20054;-77
2022/06/06 16:34:57;;;;;;;0.20;0.20;;;14.10;81.60;;;;;;5021069;28;20038;-77
2022/06/06 16:38:02;;;;;;;0.20;0.20;;;14.10;81.60;;;;;;5014335;28;20073;-77
2022/06/06 16:40:43;;;;;;;0.20;0.20;;;14.10;81.70;;;;;;5014142;28;20092;-77
2022/06/06 16:49:38;;;;;;;0.20;0.20;;;14.10;81.50;;;;;;5012666;28;20490;-79